createdAt,value
2023-03-26T00:02:40.254Z,100.00
2023-03-26T00:07:41.610Z,100.00
2023-03-26T00:12:42.609Z,100.00
2023-03-26T00:17:45.636Z,100.00
2023-03-26T00:22:47.126Z,100.00
2023-03-26T00:27:48.779Z,100.00
2023-03-26T00:32:53.970Z,100.00
2023-03-26T00:37:55.106Z,100.00
2023-03-26T00:42:56.277Z,100.00
2023-03-26T00:47:57.166Z,100.00
2023-03-26T00:52:58.149Z,100.00
2023-03-26T00:57:59.000Z,100.00
2023-03-26T01:03:03.841Z,100.00
2023-03-26T01:08:53.876Z,100.00
2023-03-26T01:14:17.384Z,100.00
2023-03-26T01:20:57.914Z,100.00
2023-03-26T01:27:43.642Z,100.00
2023-03-26T01:33:56.241Z,100.00
2023-03-26T01:39:17.920Z,100.00
2023-03-26T01:44:37.535Z,100.00
2023-03-26T01:49:38.422Z,100.00
2023-03-26T01:54:40.522Z,100.00
2023-03-26T02:00:06.304Z,100.00
2023-03-26T02:05:26.658Z,100.00
2023-03-26T02:10:30.275Z,100.00
2023-03-26T02:15:32.234Z,100.00
2023-03-26T02:20:33.041Z,100.00
2023-03-26T02:25:35.018Z,100.00
2023-03-26T02:30:36.999Z,100.00
2023-03-26T02:35:38.051Z,100.00
2023-03-26T02:40:39.567Z,100.00
2023-03-26T02:45:40.836Z,100.00
2023-03-26T02:51:01.334Z,100.00
2023-03-26T02:56:13.292Z,100.00
2023-03-26T03:01:22.644Z,100.00
2023-03-26T03:06:30.156Z,100.00
2023-03-26T03:11:32.639Z,100.00
2023-03-26T03:16:33.679Z,100.00
2023-03-26T03:21:41.551Z,100.00
2023-03-26T03:26:44.981Z,100.00
2023-03-26T03:31:53.246Z,100.00
2023-03-26T03:37:18.501Z,100.00
2023-03-26T03:42:24.461Z,100.00
2023-03-26T03:47:27.312Z,100.00
2023-03-26T03:52:28.683Z,100.00
2023-03-26T03:57:32.643Z,100.00
2023-03-26T04:02:37.362Z,100.00
2023-03-26T04:07:39.528Z,100.00
2023-03-26T04:13:25.742Z,100.00
2023-03-26T04:19:28.733Z,100.00
2023-03-26T04:24:29.597Z,100.00
2023-03-26T04:30:19.829Z,100.00
2023-03-26T04:35:25.155Z,100.00
2023-03-26T04:40:29.715Z,100.00
2023-03-26T04:46:17.465Z,100.00
2023-03-26T04:51:29.960Z,100.00
2023-03-26T04:57:02.112Z,100.00
2023-03-26T05:02:26.295Z,100.00
2023-03-26T05:07:28.806Z,100.00
2023-03-26T05:12:31.051Z,100.00
2023-03-26T05:17:40.736Z,100.00
2023-03-26T05:22:43.706Z,100.00
2023-03-26T05:27:50.692Z,100.00
2023-03-26T05:32:52.872Z,100.00
2023-03-26T05:37:57.911Z,100.00
2023-03-26T05:42:59.443Z,100.00
2023-03-26T05:48:13.648Z,100.00
2023-03-26T05:53:14.865Z,100.00
2023-03-26T05:59:03.957Z,100.00
2023-03-26T06:04:23.407Z,100.00
2023-03-26T06:09:40.188Z,100.00
2023-03-26T06:14:45.124Z,100.00
2023-03-26T06:19:53.395Z,100.00
2023-03-26T06:25:06.699Z,100.00
2023-03-26T06:30:17.830Z,100.00
2023-03-26T06:35:29.209Z,100.00
2023-03-26T06:40:31.795Z,100.00
2023-03-26T06:45:51.693Z,100.00
2023-03-26T06:51:11.083Z,100.00
2023-03-26T06:56:30.820Z,100.00
2023-03-26T07:01:48.292Z,100.00
2023-03-26T07:08:10.676Z,100.00
2023-03-26T07:13:29.987Z,100.00
2023-03-26T07:18:49.462Z,100.00
2023-03-26T07:23:56.586Z,100.00
2023-03-26T07:30:21.803Z,100.00
2023-03-26T07:35:49.971Z,100.00
2023-03-26T07:50:27.037Z,100.00
2023-03-26T07:56:19.603Z,100.00
2023-03-26T08:02:51.947Z,100.00
2023-03-26T08:11:27.739Z,100.00
2023-03-26T08:16:53.377Z,100.00
2023-03-26T08:22:01.445Z,100.00
2023-03-26T08:27:31.312Z,100.00
2023-03-26T08:32:32.931Z,100.00
2023-03-26T08:37:33.763Z,100.00
2023-03-26T08:49:38.963Z,100.00
2023-03-26T08:55:02.781Z,100.00
2023-03-26T09:01:44.717Z,100.00
2023-03-26T09:08:25.118Z,100.00
2023-03-26T09:14:23.787Z,100.00
2023-03-26T09:20:06.721Z,100.00
2023-03-26T09:25:47.664Z,100.00
2023-03-26T09:33:55.146Z,100.00
2023-03-26T09:40:00.888Z,100.00
2023-03-26T09:46:54.092Z,100.00
2023-03-26T09:52:56.286Z,100.00
2023-03-26T09:58:32.574Z,100.00
2023-03-26T10:04:01.138Z,100.00
2023-03-26T10:09:28.093Z,100.00
2023-03-26T10:20:08.238Z,100.00
2023-03-26T10:28:05.330Z,100.00
2023-03-26T10:33:29.960Z,100.00
2023-03-26T10:40:05.201Z,100.00
2023-03-26T10:45:32.429Z,100.00
2023-03-26T10:53:57.364Z,100.00
2023-03-26T10:59:04.166Z,100.00
2023-03-26T11:04:20.837Z,100.00
2023-03-26T11:09:37.884Z,100.00
2023-03-26T11:14:57.853Z,100.00
2023-03-26T11:21:39.533Z,100.00
2023-03-26T11:30:28.933Z,100.00
2023-03-26T11:35:40.903Z,100.00
2023-03-26T11:40:49.803Z,100.00
2023-03-26T11:46:12.182Z,100.00
2023-03-26T11:51:22.672Z,100.00
2023-03-26T11:57:05.195Z,100.00
2023-03-26T12:02:22.666Z,100.00
2023-03-26T12:07:34.297Z,100.00
2023-03-26T12:12:41.901Z,100.00
2023-03-26T12:17:51.768Z,100.00
2023-03-26T12:22:58.599Z,100.00
2023-03-26T12:28:30.208Z,100.00
2023-03-26T12:33:37.988Z,100.00
2023-03-26T12:38:39.924Z,91.16
2023-03-26T12:44:54.242Z,94.85
2023-03-26T12:50:02.754Z,88.85
2023-03-26T12:55:20.872Z,93.27
2023-03-26T13:02:21.845Z,100.00
2023-03-26T13:07:57.042Z,100.00
2023-03-26T13:15:59.027Z,100.00
2023-03-26T13:21:25.905Z,100.00
2023-03-26T13:28:05.565Z,100.00
2023-03-26T13:36:21.939Z,100.00
2023-03-26T13:41:50.941Z,99.79
2023-03-26T13:46:59.093Z,97.56
2023-03-26T13:52:11.169Z,92.34
2023-03-26T13:58:49.959Z,91.60
2023-03-26T14:04:00.305Z,93.12
2023-03-26T14:09:16.984Z,89.50
2023-03-26T14:14:49.114Z,91.40
2023-03-26T14:21:43.241Z,81.61
2023-03-26T14:27:12.419Z,86.72
2023-03-26T14:32:51.344Z,89.10
2023-03-26T14:41:10.165Z,83.97
2023-03-26T14:47:37.509Z,76.39
2023-03-26T14:52:52.587Z,76.62
2023-03-26T15:01:14.064Z,76.14
2023-03-26T15:09:45.515Z,88.65
2023-03-26T15:15:25.162Z,100.00
2023-03-26T15:20:56.291Z,100.00
2023-03-26T15:26:45.138Z,100.00
2023-03-26T15:33:38.172Z,100.00
2023-03-26T15:42:08.413Z,100.00
2023-03-26T15:48:42.818Z,100.00
2023-03-26T15:56:48.421Z,100.00
2023-03-26T16:02:09.257Z,100.00
2023-03-26T16:07:47.348Z,100.00
2023-03-26T16:13:47.678Z,100.00
2023-03-26T16:19:30.591Z,100.00
2023-03-26T16:24:34.507Z,100.00
2023-03-26T16:30:30.144Z,100.00
2023-03-26T16:36:01.134Z,100.00
2023-03-26T16:41:16.902Z,100.00
2023-03-26T16:46:51.226Z,100.00
2023-03-26T16:53:00.221Z,100.00
2023-03-26T16:58:27.243Z,100.00
2023-03-26T17:04:37.566Z,100.00
2023-03-26T17:12:03.873Z,100.00
2023-03-26T17:18:42.762Z,100.00
2023-03-26T17:25:43.967Z,100.00
2023-03-26T17:31:02.689Z,100.00
2023-03-26T17:36:28.624Z,100.00
2023-03-26T17:41:54.151Z,100.00
2023-03-26T17:46:56.946Z,100.00
2023-03-26T17:52:03.576Z,100.00
2023-03-26T17:57:20.600Z,100.00
2023-03-26T18:02:32.603Z,100.00
2023-03-26T18:08:07.448Z,100.00
2023-03-26T18:15:12.602Z,100.00
2023-03-26T18:20:26.202Z,100.00
2023-03-26T18:25:33.054Z,100.00
2023-03-26T18:30:46.200Z,100.00
2023-03-26T18:35:55.864Z,100.00
2023-03-26T18:40:58.431Z,100.00
2023-03-26T18:45:59.997Z,100.00
2023-03-26T18:51:04.945Z,100.00
2023-03-26T18:56:28.160Z,100.00
2023-03-26T19:01:32.580Z,100.00
2023-03-26T19:06:38.385Z,100.00
2023-03-26T19:11:41.768Z,100.00
2023-03-26T19:16:46.823Z,100.00
2023-03-26T19:21:48.085Z,100.00
2023-03-26T19:26:50.123Z,100.00
2023-03-26T19:31:52.498Z,100.00
2023-03-26T19:37:01.243Z,100.00
2023-03-26T19:42:05.727Z,100.00
2023-03-26T19:47:26.807Z,100.00
2023-03-26T19:52:36.025Z,100.00
2023-03-26T19:57:37.161Z,100.00
2023-03-26T20:02:38.590Z,100.00
2023-03-26T20:07:39.527Z,100.00
2023-03-26T20:12:40.346Z,100.00
2023-03-26T20:17:42.064Z,100.00
2023-03-26T20:22:46.160Z,100.00
2023-03-26T20:27:47.019Z,100.00
2023-03-26T20:32:49.553Z,100.00
2023-03-26T20:38:14.131Z,100.00
2023-03-26T20:43:17.666Z,100.00
2023-03-26T20:48:18.425Z,100.00
2023-03-26T20:53:19.652Z,100.00
2023-03-26T20:58:30.728Z,100.00
2023-03-26T21:03:32.992Z,100.00
2023-03-26T21:08:34.100Z,100.00
2023-03-26T21:13:49.159Z,100.00
2023-03-26T21:18:50.965Z,100.00
2023-03-26T21:24:04.264Z,100.00
2023-03-26T21:29:05.213Z,100.00
2023-03-26T21:34:07.627Z,100.00
2023-03-26T21:39:10.514Z,100.00
2023-03-26T21:44:13.388Z,100.00
2023-03-26T21:49:16.431Z,100.00
2023-03-26T21:54:27.579Z,100.00
2023-03-26T22:04:30.794Z,100.00
2023-03-26T22:09:36.476Z,100.00
2023-03-26T22:14:38.041Z,100.00
2023-03-26T22:19:38.850Z,100.00
2023-03-26T22:24:39.796Z,100.00
2023-03-26T22:29:41.424Z,100.00
2023-03-26T22:34:44.309Z,100.00
2023-03-26T22:39:45.057Z,100.00
2023-03-26T22:44:46.027Z,100.00
2023-03-26T22:49:46.810Z,100.00
2023-03-26T22:54:47.599Z,100.00
2023-03-26T22:59:48.718Z,100.00
2023-03-26T23:04:49.842Z,100.00
2023-03-26T23:09:52.271Z,100.00
2023-03-26T23:14:53.117Z,100.00
2023-03-26T23:19:53.930Z,100.00
2023-03-26T23:24:54.827Z,100.00
2023-03-26T23:29:55.816Z,100.00
2023-03-26T23:34:57.043Z,100.00
2023-03-26T23:39:58.480Z,100.00
2023-03-26T23:44:59.208Z,100.00
2023-03-26T23:50:03.784Z,100.00
2023-03-26T23:55:05.171Z,100.00
